36.7°F
Current conditions from King Hill
Updated every 5 minutes
 
  Monday October 20, 2014

Station Historical Data
Daily Summary for April 13, 2011 Units:  Both    English   Metric
« Previous Day
Next Day »
Daily Weekly Monthly Yearly Custom
  High: Low: Average:
Temperature: 49.1 °F /  9.5 °C 40.3 °F /  4.6 °C 43.4 °F /  6.3 °C
Dew Point: 39.2 °F /  4 °C 23.3 °F /  -4.8 °C 33.9 °F /  1.1 °C
Humidity: 93% 36% 71%
Wind Speed: 8.0mph /  12.9km/h - 2.9mph /  4.7km/h
Wind Gust: 22.0mph /  35.4km/h - -
Wind- - SSE
Pressure: 30.14 in /  1020.5 hPa 29.83 in /  1010 hPa -
Precipitation: 0.31 in /  7.9 mm    
Historical Graphs
 
 
Tabular Data for April 13, 2011
Time Temperature Dew Point Pressure Wind Wind Speed Wind Gust Humidity Daily Rainfall
00:00 42.1 °F /  5.6 °C 27.1 °F /  -2.7 °C 30.12in /  1019.9hPa Calm   3.0mph /  4.8km/h 55% 0.00in /  0mm
00:05 42.2 °F /  5.7 °C 27.6 °F /  -2.4 °C 30.12in /  1019.9hPa Calm   3.0mph /  4.8km/h 56% 0.00in /  0mm
00:10 42.3 °F /  5.7 °C 26.8 °F /  -2.9 °C 30.11in /  1019.5hPa ENE 1.0mph /  1.6km/h 4.0mph /  6.4km/h 54% 0.00in /  0mm
00:15 42.5 °F /  5.8 °C 27.0 °F /  -2.8 °C 30.11in /  1019.5hPa ENE 1.0mph /  1.6km/h 5.0mph /  8km/h 54% 0.00in /  0mm
00:20 43.1 °F /  6.2 °C 25.7 °F /  -3.5 °C 30.11in /  1019.5hPa ENE 1.0mph /  1.6km/h 8.0mph /  12.9km/h 50% 0.00in /  0mm
00:25 43.7 °F /  6.5 °C 25.3 °F /  -3.7 °C 30.11in /  1019.5hPa East 1.0mph /  1.6km/h 8.0mph /  12.9km/h 48% 0.00in /  0mm
00:30 44.0 °F /  6.7 °C 26.1 °F /  -3.3 °C 30.12in /  1019.9hPa Calm   7.0mph /  11.3km/h 49% 0.00in /  0mm
00:35 43.8 °F /  6.6 °C 26.4 °F /  -3.1 °C 30.11in /  1019.5hPa Calm   7.0mph /  11.3km/h 50% 0.00in /  0mm
00:40 43.3 °F /  6.3 °C 25.9 °F /  -3.4 °C 30.11in /  1019.5hPa Calm   2.0mph /  3.2km/h 50% 0.00in /  0mm
00:45 43.3 °F /  6.3 °C 25.9 °F /  -3.4 °C 30.11in /  1019.5hPa ENE 2.0mph /  3.2km/h 6.0mph /  9.7km/h 50% 0.00in /  0mm
00:50 43.4 °F /  6.3 °C 25.5 °F /  -3.6 °C 30.11in /  1019.5hPa NE 1.0mph /  1.6km/h 6.0mph /  9.7km/h 49% 0.00in /  0mm
00:55 43.3 °F /  6.3 °C 24.9 °F /  -3.9 °C 30.10in /  1019.2hPa NE 2.0mph /  3.2km/h 6.0mph /  9.7km/h 48% 0.00in /  0mm
01:00 43.3 °F /  6.3 °C 25.4 °F /  -3.7 °C 30.10in /  1019.2hPa NE 1.0mph /  1.6km/h 6.0mph /  9.7km/h 49% 0.00in /  0mm
01:05 43.4 °F /  6.3 °C 26.9 °F /  -2.8 °C 30.09in /  1018.8hPa Calm   6.0mph /  9.7km/h 52% 0.00in /  0mm
01:10 43.3 °F /  6.3 °C 27.3 °F /  -2.6 °C 30.09in /  1018.8hPa Calm   6.0mph /  9.7km/h 53% 0.00in /  0mm
01:15 43.2 °F /  6.2 °C 26.8 °F /  -2.9 °C 30.09in /  1018.8hPa ENE 1.0mph /  1.6km/h 5.0mph /  8km/h 52% 0.00in /  0mm
01:20 43.2 °F /  6.2 °C 26.8 °F /  -2.9 °C 30.08in /  1018.5hPa Calm   5.0mph /  8km/h 52% 0.00in /  0mm
01:25 43.2 °F /  6.2 °C 25.8 °F /  -3.4 °C 30.08in /  1018.5hPa Calm   4.0mph /  6.4km/h 50% 0.00in /  0mm
01:30 43.4 °F /  6.3 °C 25.0 °F /  -3.9 °C 30.08in /  1018.5hPa ENE 1.0mph /  1.6km/h 5.0mph /  8km/h 48% 0.00in /  0mm
01:40 43.4 °F /  6.3 °C 26.0 °F /  -3.3 °C 30.08in /  1018.5hPa Calm   3.0mph /  4.8km/h 50% 0.00in /  0mm
01:45 43.0 °F /  6.1 °C 27.9 °F /  -2.3 °C 30.08in /  1018.5hPa ENE 1.0mph /  1.6km/h 3.0mph /  4.8km/h 55% 0.00in /  0mm
01:50 42.6 °F /  5.9 °C 27.1 °F /  -2.7 °C 30.09in /  1018.8hPa Calm   3.0mph /  4.8km/h 54% 0.00in /  0mm
02:00 42.3 °F /  5.7 °C 25.5 °F /  -3.6 °C 30.07in /  1018.2hPa ENE 1.0mph /  1.6km/h 2.0mph /  3.2km/h 51% 0.00in /  0mm
02:05 42.5 °F /  5.8 °C 28.3 °F /  -2.1 °C 30.07in /  1018.2hPa ENE 1.0mph /  1.6km/h 5.0mph /  8km/h 57% 0.00in /  0mm
02:10 42.9 °F /  6.1 °C 27.4 °F /  -2.6 °C 30.06in /  1017.8hPa East 1.0mph /  1.6km/h 5.0mph /  8km/h 54% 0.00in /  0mm
02:15 43.0 °F /  6.1 °C 27.9 °F /  -2.3 °C 30.07in /  1018.2hPa East 1.0mph /  1.6km/h 5.0mph /  8km/h 55% 0.00in /  0mm
02:20 43.2 °F /  6.2 °C 27.2 °F /  -2.7 °C 30.07in /  1018.2hPa Calm   5.0mph /  8km/h 53% 0.00in /  0mm
02:25 43.2 °F /  6.2 °C 29.0 °F /  -1.7 °C 30.07in /  1018.2hPa Calm   5.0mph /  8km/h 57% 0.00in /  0mm
02:30 43.7 °F /  6.5 °C 28.1 °F /  -2.2 °C 30.07in /  1018.2hPa Calm   5.0mph /  8km/h 54% 0.00in /  0mm
02:35 43.6 °F /  6.4 °C 28.1 °F /  -2.2 °C 30.07in /  1018.2hPa Calm   5.0mph /  8km/h 54% 0.00in /  0mm
02:40 43.4 °F /  6.3 °C 29.6 °F /  -1.3 °C 30.07in /  1018.2hPa Calm     58% 0.00in /  0mm
02:45 43.1 °F /  6.2 °C 27.6 °F /  -2.4 °C 30.07in /  1018.2hPa Calm     54% 0.00in /  0mm
02:50 43.0 °F /  6.1 °C 27.9 °F /  -2.3 °C 30.06in /  1017.8hPa Calm     55% 0.00in /  0mm
02:55 42.8 °F /  6 °C 29.9 °F /  -1.2 °C 30.07in /  1018.2hPa Calm   2.0mph /  3.2km/h 60% 0.00in /  0mm
03:00 42.5 °F /  5.8 °C 28.8 °F /  -1.8 °C 30.07in /  1018.2hPa Calm   2.0mph /  3.2km/h 58% 0.00in /  0mm
03:05 42.6 °F /  5.9 °C 30.5 °F /  -0.8 °C 30.07in /  1018.2hPa Calm   2.0mph /  3.2km/h 62% 0.00in /  0mm
03:10 42.4 °F /  5.8 °C 29.5 °F /  -1.4 °C 30.07in /  1018.2hPa Calm   1.0mph /  1.6km/h 60% 0.00in /  0mm
03:15 42.3 °F /  5.7 °C 29.4 °F /  -1.4 °C 30.07in /  1018.2hPa Calm   1.0mph /  1.6km/h 60% 0.00in /  0mm
03:20 42.3 °F /  5.7 °C 28.6 °F /  -1.9 °C 30.07in /  1018.2hPa Calm     58% 0.00in /  0mm
03:25 42.5 °F /  5.8 °C 27.9 °F /  -2.3 °C 30.06in /  1017.8hPa Calm     56% 0.00in /  0mm
03:30 42.6 °F /  5.9 °C 29.7 °F /  -1.3 °C 30.06in /  1017.8hPa Calm     60% 0.00in /  0mm
03:35 42.6 °F /  5.9 °C 30.9 °F /  -0.6 °C 30.06in /  1017.8hPa Calm   1.0mph /  1.6km/h 63% 0.00in /  0mm
03:40 42.7 °F /  5.9 °C 28.1 °F /  -2.2 °C 30.06in /  1017.8hPa East 1.0mph /  1.6km/h 5.0mph /  8km/h 56% 0.00in /  0mm
03:45 43.8 °F /  6.6 °C 25.9 °F /  -3.4 °C 30.06in /  1017.8hPa Calm   5.0mph /  8km/h 49% 0.00in /  0mm
03:50 44.4 °F /  6.9 °C 24.9 °F /  -3.9 °C 30.06in /  1017.8hPa Calm   3.0mph /  4.8km/h 46% 0.00in /  0mm
03:55 44.7 °F /  7.1 °C 24.7 °F /  -4.1 °C 30.06in /  1017.8hPa Calm   2.0mph /  3.2km/h 45% 0.00in /  0mm
04:00 44.9 °F /  7.2 °C 25.9 °F /  -3.4 °C 30.06in /  1017.8hPa Calm   3.0mph /  4.8km/h 47% 0.00in /  0mm
04:05 45.6 °F /  7.6 °C 25.5 °F /  -3.6 °C 30.06in /  1017.8hPa ESE 1.0mph /  1.6km/h 4.0mph /  6.4km/h 45% 0.00in /  0mm
04:10 45.8 °F /  7.7 °C 26.2 °F /  -3.2 °C 30.07in /  1018.2hPa Calm   4.0mph /  6.4km/h 46% 0.00in /  0mm
04:15 45.5 °F /  7.5 °C 26.9 °F /  -2.8 °C 30.07in /  1018.2hPa Calm   3.0mph /  4.8km/h 48% 0.00in /  0mm
04:20 45.3 °F /  7.4 °C 26.8 °F /  -2.9 °C 30.07in /  1018.2hPa Calm   5.0mph /  8km/h 48% 0.00in /  0mm
04:25 45.2 °F /  7.3 °C 27.2 °F /  -2.7 °C 30.07in /  1018.2hPa Calm   5.0mph /  8km/h 49% 0.00in /  0mm
04:35 46.0 °F /  7.8 °C 26.4 °F /  -3.1 °C 30.07in /  1018.2hPa SSW 1.0mph /  1.6km/h 5.0mph /  8km/h 46% 0.00in /  0mm
04:40 46.9 °F /  8.3 °C 25.0 °F /  -3.9 °C 30.07in /  1018.2hPa SSW 4.0mph /  6.4km/h 9.0mph /  14.5km/h 42% 0.00in /  0mm
04:45 47.5 °F /  8.6 °C 24.4 °F /  -4.2 °C 30.07in /  1018.2hPa South 5.0mph /  8km/h 9.0mph /  14.5km/h 40% 0.00in /  0mm
04:50 47.8 °F /  8.8 °C 25.2 °F /  -3.8 °C 30.07in /  1018.2hPa South 6.0mph /  9.7km/h 11.0mph /  17.7km/h 41% 0.00in /  0mm
04:55 48.0 °F /  8.9 °C 25.4 °F /  -3.7 °C 30.06in /  1017.8hPa South 4.0mph /  6.4km/h 12.0mph /  19.3km/h 41% 0.00in /  0mm
05:00 48.2 °F /  9 °C 24.4 °F /  -4.2 °C 30.06in /  1017.8hPa South 5.0mph /  8km/h 15.0mph /  24.1km/h 39% 0.00in /  0mm
05:05 48.4 °F /  9.1 °C 24.6 °F /  -4.1 °C 30.06in /  1017.8hPa South 5.0mph /  8km/h 15.0mph /  24.1km/h 39% 0.00in /  0mm
05:10 48.5 °F /  9.2 °C 24.0 °F /  -4.4 °C 30.06in /  1017.8hPa South 6.0mph /  9.7km/h 14.0mph /  22.5km/h 38% 0.00in /  0mm
05:15 48.6 °F /  9.2 °C 24.8 °F /  -4 °C 30.06in /  1017.8hPa South 4.0mph /  6.4km/h 12.0mph /  19.3km/h 39% 0.00in /  0mm
05:20 48.6 °F /  9.2 °C 23.5 °F /  -4.7 °C 30.06in /  1017.8hPa South 6.0mph /  9.7km/h 11.0mph /  17.7km/h 37% 0.00in /  0mm
05:25 48.6 °F /  9.2 °C 24.1 °F /  -4.4 °C 30.06in /  1017.8hPa South 5.0mph /  8km/h 11.0mph /  17.7km/h 38% 0.00in /  0mm
05:30 48.7 °F /  9.3 °C 24.2 °F /  -4.3 °C 30.05in /  1017.5hPa South 4.0mph /  6.4km/h 10.0mph /  16.1km/h 38% 0.00in /  0mm
05:40 49.0 °F /  9.4 °C 23.9 °F /  -4.5 °C 30.06in /  1017.8hPa SSE 3.0mph /  4.8km/h 13.0mph /  20.9km/h 37% 0.00in /  0mm
05:45 49.1 °F /  9.5 °C 23.3 °F /  -4.8 °C 30.06in /  1017.8hPa South 4.0mph /  6.4km/h 12.0mph /  19.3km/h 36% 0.00in /  0mm
05:50 48.9 °F /  9.4 °C 23.8 °F /  -4.6 °C 30.06in /  1017.8hPa South 5.0mph /  8km/h 12.0mph /  19.3km/h 37% 0.00in /  0mm
05:55 48.9 °F /  9.4 °C 24.4 °F /  -4.2 °C 30.07in /  1018.2hPa South 3.0mph /  4.8km/h 11.0mph /  17.7km/h 38% 0.00in /  0mm
06:00 48.9 °F /  9.4 °C 23.8 °F /  -4.6 °C 30.07in /  1018.2hPa SSW 4.0mph /  6.4km/h 12.0mph /  19.3km/h 37% 0.00in /  0mm
06:05 48.7 °F /  9.3 °C 24.2 °F /  -4.3 °C 30.06in /  1017.8hPa SSW 4.0mph /  6.4km/h 12.0mph /  19.3km/h 38% 0.00in /  0mm
06:10 48.5 °F /  9.2 °C 25.3 °F /  -3.7 °C 30.06in /  1017.8hPa SSW 1.0mph /  1.6km/h 11.0mph /  17.7km/h 40% 0.00in /  0mm
06:15 48.1 °F /  8.9 °C 25.5 °F /  -3.6 °C 30.06in /  1017.8hPa South 3.0mph /  4.8km/h 11.0mph /  17.7km/h 41% 0.00in /  0mm
06:20 47.6 °F /  8.7 °C 26.8 °F /  -2.9 °C 30.06in /  1017.8hPa South 3.0mph /  4.8km/h 10.0mph /  16.1km/h 44% 0.00in /  0mm
06:25 47.2 °F /  8.4 °C 28.5 °F /  -1.9 °C 30.06in /  1017.8hPa SSW 2.0mph /  3.2km/h 9.0mph /  14.5km/h 48% 0.00in /  0mm
06:30 46.6 °F /  8.1 °C 29.0 °F /  -1.7 °C 30.06in /  1017.8hPa SSE 3.0mph /  4.8km/h 7.0mph /  11.3km/h 50% 0.00in /  0mm
06:35 46.1 °F /  7.8 °C 30.4 °F /  -0.9 °C 30.06in /  1017.8hPa SSE 4.0mph /  6.4km/h 7.0mph /  11.3km/h 54% 0.00in /  0mm
06:40 45.8 °F /  7.7 °C 31.0 °F /  -0.6 °C 30.06in /  1017.8hPa SSE 2.0mph /  3.2km/h 15.0mph /  24.1km/h 56% 0.00in /  0mm
06:45 45.6 °F /  7.6 °C 31.2 °F /  -0.4 °C 30.07in /  1018.2hPa South 1.0mph /  1.6km/h 15.0mph /  24.1km/h 57% 0.00in /  0mm
06:50 45.6 °F /  7.6 °C 31.7 °F /  -0.2 °C 30.07in /  1018.2hPa South 2.0mph /  3.2km/h 16.0mph /  25.7km/h 58% 0.00in /  0mm
06:55 45.1 °F /  7.3 °C 32.5 °F /  0.3 °C 30.07in /  1018.2hPa South 2.0mph /  3.2km/h 16.0mph /  25.7km/h 61% 0.00in /  0mm
07:00 44.9 °F /  7.2 °C 33.5 °F /  0.8 °C 30.08in /  1018.5hPa Calm   8.0mph /  12.9km/h 64% 0.00in /  0mm
07:05 44.3 °F /  6.8 °C 33.7 °F /  0.9 °C 30.08in /  1018.5hPa Calm   8.0mph /  12.9km/h 66% 0.00in /  0mm
07:15 43.6 °F /  6.4 °C 33.7 °F /  0.9 °C 30.08in /  1018.5hPa SSW 2.0mph /  3.2km/h 6.0mph /  9.7km/h 68% 0.01in /  0.3mm
07:20 43.6 °F /  6.4 °C 33.0 °F /  0.6 °C 30.08in /  1018.5hPa SSE 3.0mph /  4.8km/h 12.0mph /  19.3km/h 66% 0.01in /  0.3mm
07:25 43.4 °F /  6.3 °C 33.6 °F /  0.9 °C 30.09in /  1018.8hPa SSE 1.0mph /  1.6km/h 12.0mph /  19.3km/h 68% 0.01in /  0.3mm
07:30 43.3 °F /  6.3 °C 33.5 °F /  0.8 °C 30.09in /  1018.8hPa South 3.0mph /  4.8km/h 9.0mph /  14.5km/h 68% 0.01in /  0.3mm
07:35 43.1 °F /  6.2 °C 34.0 °F /  1.1 °C 30.09in /  1018.8hPa SSE 2.0mph /  3.2km/h 9.0mph /  14.5km/h 70% 0.02in /  0.5mm
07:40 42.9 °F /  6.1 °C 34.2 °F /  1.2 °C 30.10in /  1019.2hPa SSW 3.0mph /  4.8km/h 7.0mph /  11.3km/h 71% 0.02in /  0.5mm
07:45 42.7 °F /  5.9 °C 34.3 °F /  1.3 °C 30.10in /  1019.2hPa SSE 3.0mph /  4.8km/h 8.0mph /  12.9km/h 72% 0.02in /  0.5mm
07:50 42.4 °F /  5.8 °C 34.4 °F /  1.3 °C 30.11in /  1019.5hPa South 3.0mph /  4.8km/h 8.0mph /  12.9km/h 73% 0.02in /  0.5mm
07:55 42.3 °F /  5.7 °C 34.6 °F /  1.4 °C 30.12in /  1019.9hPa SSW 5.0mph /  8km/h 8.0mph /  12.9km/h 74% 0.02in /  0.5mm
08:00 42.3 °F /  5.7 °C 34.9 °F /  1.6 °C 30.12in /  1019.9hPa South 4.0mph /  6.4km/h 10.0mph /  16.1km/h 75% 0.03in /  0.8mm
08:05 42.1 °F /  5.6 °C 35.1 °F /  1.7 °C 30.13in /  1020.2hPa South 4.0mph /  6.4km/h 10.0mph /  16.1km/h 76% 0.04in /  1mm
08:10 41.8 °F /  5.4 °C 35.1 °F /  1.7 °C 30.13in /  1020.2hPa SSW 1.0mph /  1.6km/h 8.0mph /  12.9km/h 77% 0.04in /  1mm
08:15 41.5 °F /  5.3 °C 35.2 °F /  1.8 °C 30.14in /  1020.5hPa South 5.0mph /  8km/h 8.0mph /  12.9km/h 78% 0.06in /  1.5mm
08:20 41.2 °F /  5.1 °C 35.5 °F /  1.9 °C 30.14in /  1020.5hPa SSW 4.0mph /  6.4km/h 8.0mph /  12.9km/h 80% 0.06in /  1.5mm
08:25 41.0 °F /  5 °C 36.8 °F /  2.7 °C 30.14in /  1020.5hPa South 5.0mph /  8km/h 8.0mph /  12.9km/h 85% 0.08in /  2mm
08:30 40.8 °F /  4.9 °C 35.4 °F /  1.9 °C 30.13in /  1020.2hPa South 4.0mph /  6.4km/h 12.0mph /  19.3km/h 81% 0.09in /  2.3mm
08:35 40.7 °F /  4.8 °C 35.3 °F /  1.8 °C 30.13in /  1020.2hPa South 5.0mph /  8km/h 12.0mph /  19.3km/h 81% 0.10in /  2.5mm
08:40 40.6 °F /  4.8 °C 35.2 °F /  1.8 °C 30.12in /  1019.9hPa SSE 3.0mph /  4.8km/h 10.0mph /  16.1km/h 81% 0.11in /  2.8mm
08:45 40.5 °F /  4.7 °C 35.4 °F /  1.9 °C 30.12in /  1019.9hPa Calm   9.0mph /  14.5km/h 82% 0.12in /  3mm
08:50 40.4 °F /  4.7 °C 35.7 °F /  2.1 °C 30.12in /  1019.9hPa Calm   7.0mph /  11.3km/h 83% 0.14in /  3.6mm
08:55 40.3 °F /  4.6 °C 35.6 °F /  2 °C 30.12in /  1019.9hPa Calm   3.0mph /  4.8km/h 83% 0.15in /  3.8mm
09:00 40.3 °F /  4.6 °C 35.6 °F /  2 °C 30.12in /  1019.9hPa Calm   3.0mph /  4.8km/h 83% 0.16in /  4.1mm
09:05 40.3 °F /  4.6 °C 35.6 °F /  2 °C 30.12in /  1019.9hPa SE 1.0mph /  1.6km/h 9.0mph /  14.5km/h 83% 0.17in /  4.3mm
09:10 40.4 °F /  4.7 °C 35.7 °F /  2.1 °C 30.12in /  1019.9hPa Calm   9.0mph /  14.5km/h 83% 0.17in /  4.3mm
09:15 40.4 °F /  4.7 °C 35.3 °F /  1.8 °C 30.11in /  1019.5hPa SSE 1.0mph /  1.6km/h 4.0mph /  6.4km/h 82% 0.18in /  4.6mm
09:20 40.5 °F /  4.7 °C 35.4 °F /  1.9 °C 30.11in /  1019.5hPa Calm   4.0mph /  6.4km/h 82% 0.18in /  4.6mm
09:25 40.5 °F /  4.7 °C 35.4 °F /  1.9 °C 30.11in /  1019.5hPa Calm   4.0mph /  6.4km/h 82% 0.18in /  4.6mm
09:30 40.5 °F /  4.7 °C 35.1 °F /  1.7 °C 30.11in /  1019.5hPa SW 1.0mph /  1.6km/h 6.0mph /  9.7km/h 81% 0.19in /  4.8mm
09:35 40.6 °F /  4.8 °C 34.9 °F /  1.6 °C 30.11in /  1019.5hPa SSE 1.0mph /  1.6km/h 6.0mph /  9.7km/h 80% 0.20in /  5.1mm
09:40 40.6 °F /  4.8 °C 34.6 °F /  1.4 °C 30.11in /  1019.5hPa SSE 3.0mph /  4.8km/h 8.0mph /  12.9km/h 79% 0.20in /  5.1mm
09:45 40.8 °F /  4.9 °C 33.5 °F /  0.8 °C 30.11in /  1019.5hPa South 6.0mph /  9.7km/h 17.0mph /  27.4km/h 75% 0.20in /  5.1mm
09:50 40.9 °F /  4.9 °C 32.9 °F /  0.5 °C 30.10in /  1019.2hPa South 4.0mph /  6.4km/h 17.0mph /  27.4km/h 73% 0.20in /  5.1mm
09:55 40.9 °F /  4.9 °C 32.9 °F /  0.5 °C 30.10in /  1019.2hPa SSE 6.0mph /  9.7km/h 13.0mph /  20.9km/h 73% 0.20in /  5.1mm
10:00 40.9 °F /  4.9 °C 32.6 °F /  0.3 °C 30.10in /  1019.2hPa SSE 5.0mph /  8km/h 13.0mph /  20.9km/h 72% 0.20in /  5.1mm
10:05 41.0 °F /  5 °C 32.7 °F /  0.4 °C 30.10in /  1019.2hPa SSE 8.0mph /  12.9km/h 16.0mph /  25.7km/h 72% 0.20in /  5.1mm
10:10 41.1 °F /  5.1 °C 32.1 °F /  0.1 °C 30.10in /  1019.2hPa South 3.0mph /  4.8km/h 20.0mph /  32.2km/h 70% 0.20in /  5.1mm
10:15 41.1 °F /  5.1 °C 32.8 °F /  0.4 °C 30.09in /  1018.8hPa SSE 2.0mph /  3.2km/h 20.0mph /  32.2km/h 72% 0.20in /  5.1mm
10:20 41.2 °F /  5.1 °C 32.5 °F /  0.3 °C 30.09in /  1018.8hPa South 1.0mph /  1.6km/h 12.0mph /  19.3km/h 71% 0.20in /  5.1mm
10:25 41.1 °F /  5.1 °C 33.1 °F /  0.6 °C 30.09in /  1018.8hPa East 1.0mph /  1.6km/h 12.0mph /  19.3km/h 73% 0.20in /  5.1mm
10:30 41.0 °F /  5 °C 34.0 °F /  1.1 °C 30.09in /  1018.8hPa East 2.0mph /  3.2km/h 6.0mph /  9.7km/h 76% 0.20in /  5.1mm
10:35 40.9 °F /  4.9 °C 34.3 °F /  1.3 °C 30.09in /  1018.8hPa East 2.0mph /  3.2km/h 6.0mph /  9.7km/h 77% 0.20in /  5.1mm
10:40 40.8 °F /  4.9 °C 34.8 °F /  1.6 °C 30.08in /  1018.5hPa Calm   6.0mph /  9.7km/h 79% 0.20in /  5.1mm
10:45 40.9 °F /  4.9 °C 35.5 °F /  1.9 °C 30.08in /  1018.5hPa Calm   4.0mph /  6.4km/h 81% 0.20in /  5.1mm
10:50 40.9 °F /  4.9 °C 34.6 °F /  1.4 °C 30.08in /  1018.5hPa South 1.0mph /  1.6km/h 7.0mph /  11.3km/h 78% 0.20in /  5.1mm
10:55 41.0 °F /  5 °C 34.7 °F /  1.5 °C 30.08in /  1018.5hPa ESE 1.0mph /  1.6km/h 7.0mph /  11.3km/h 78% 0.20in /  5.1mm
11:00 41.1 °F /  5.1 °C 35.4 °F /  1.9 °C 30.07in /  1018.2hPa Calm   4.0mph /  6.4km/h 80% 0.20in /  5.1mm
11:05 41.1 °F /  5.1 °C 34.8 °F /  1.6 °C 30.08in /  1018.5hPa SSE 1.0mph /  1.6km/h 4.0mph /  6.4km/h 78% 0.20in /  5.1mm
11:10 41.7 °F /  5.4 °C 34.0 °F /  1.1 °C 30.07in /  1018.2hPa South 2.0mph /  3.2km/h 8.0mph /  12.9km/h 74% 0.21in /  5.3mm
11:20 42.7 °F /  5.9 °C 33.6 °F /  0.9 °C 30.06in /  1017.8hPa SE 4.0mph /  6.4km/h 9.0mph /  14.5km/h 70% 0.21in /  5.3mm
11:25 43.3 °F /  6.3 °C 34.5 °F /  1.4 °C 30.06in /  1017.8hPa South 3.0mph /  4.8km/h 9.0mph /  14.5km/h 71% 0.21in /  5.3mm
11:30 44.1 °F /  6.7 °C 34.6 °F /  1.4 °C 30.06in /  1017.8hPa SSE 6.0mph /  9.7km/h 14.0mph /  22.5km/h 69% 0.21in /  5.3mm
11:35 44.5 °F /  6.9 °C 34.2 °F /  1.2 °C 30.05in /  1017.5hPa SE 7.0mph /  11.3km/h 16.0mph /  25.7km/h 67% 0.21in /  5.3mm
11:40 44.5 °F /  6.9 °C 34.2 °F /  1.2 °C 30.05in /  1017.5hPa South 7.0mph /  11.3km/h 18.0mph /  29km/h 67% 0.21in /  5.3mm
11:45 44.5 °F /  6.9 °C 33.9 °F /  1.1 °C 30.05in /  1017.5hPa SSE 6.0mph /  9.7km/h 18.0mph /  29km/h 66% 0.21in /  5.3mm
11:50 44.5 °F /  6.9 °C 34.2 °F /  1.2 °C 30.05in /  1017.5hPa South 8.0mph /  12.9km/h 17.0mph /  27.4km/h 67% 0.21in /  5.3mm
11:55 44.2 °F /  6.8 °C 33.9 °F /  1.1 °C 30.04in /  1017.2hPa SSE 7.0mph /  11.3km/h 20.0mph /  32.2km/h 67% 0.21in /  5.3mm
12:00 43.9 °F /  6.6 °C 34.4 °F /  1.3 °C 30.03in /  1016.8hPa South 7.0mph /  11.3km/h 20.0mph /  32.2km/h 69% 0.21in /  5.3mm
12:05 43.4 °F /  6.3 °C 34.3 °F /  1.3 °C 30.03in /  1016.8hPa SSE 3.0mph /  4.8km/h 14.0mph /  22.5km/h 70% 0.21in /  5.3mm
12:10 43.2 °F /  6.2 °C 34.8 °F /  1.6 °C 30.02in /  1016.5hPa South 4.0mph /  6.4km/h 11.0mph /  17.7km/h 72% 0.21in /  5.3mm
12:15 43.0 °F /  6.1 °C 34.9 °F /  1.6 °C 30.02in /  1016.5hPa South 4.0mph /  6.4km/h 10.0mph /  16.1km/h 73% 0.21in /  5.3mm
12:20 43.0 °F /  6.1 °C 34.6 °F /  1.4 °C 30.01in /  1016.1hPa South 6.0mph /  9.7km/h 11.0mph /  17.7km/h 72% 0.21in /  5.3mm
12:25 43.5 °F /  6.4 °C 35.1 °F /  1.7 °C 30.01in /  1016.1hPa South 6.0mph /  9.7km/h 14.0mph /  22.5km/h 72% 0.21in /  5.3mm
12:30 44.0 °F /  6.7 °C 35.2 °F /  1.8 °C 30.01in /  1016.1hPa South 5.0mph /  8km/h 14.0mph /  22.5km/h 71% 0.21in /  5.3mm
12:35 44.2 °F /  6.8 °C 34.7 °F /  1.5 °C 30.01in /  1016.1hPa South 4.0mph /  6.4km/h 16.0mph /  25.7km/h 69% 0.21in /  5.3mm
12:40 44.4 °F /  6.9 °C 34.5 °F /  1.4 °C 30.01in /  1016.1hPa SSE 5.0mph /  8km/h 16.0mph /  25.7km/h 68% 0.21in /  5.3mm
12:45 44.5 °F /  6.9 °C 34.6 °F /  1.4 °C 30.01in /  1016.1hPa South 3.0mph /  4.8km/h 14.0mph /  22.5km/h 68% 0.21in /  5.3mm
12:50 44.5 °F /  6.9 °C 35.0 °F /  1.7 °C 30.00in /  1015.8hPa South 4.0mph /  6.4km/h 22.0mph /  35.4km/h 69% 0.21in /  5.3mm
12:55 44.6 °F /  7 °C 34.7 °F /  1.5 °C 30.00in /  1015.8hPa South 6.0mph /  9.7km/h 22.0mph /  35.4km/h 68% 0.21in /  5.3mm
13:00 44.7 °F /  7.1 °C 34.8 °F /  1.6 °C 29.99in /  1015.5hPa SSW 5.0mph /  8km/h 18.0mph /  29km/h 68% 0.21in /  5.3mm
13:05 45.0 °F /  7.2 °C 35.8 °F /  2.1 °C 29.99in /  1015.5hPa South 4.0mph /  6.4km/h 18.0mph /  29km/h 70% 0.21in /  5.3mm
13:10 45.0 °F /  7.2 °C 35.1 °F /  1.7 °C 29.99in /  1015.5hPa SSW 2.0mph /  3.2km/h 11.0mph /  17.7km/h 68% 0.21in /  5.3mm
13:15 45.1 °F /  7.3 °C 35.9 °F /  2.2 °C 29.98in /  1015.1hPa SSE 2.0mph /  3.2km/h 9.0mph /  14.5km/h 70% 0.21in /  5.3mm
13:20 45.4 °F /  7.4 °C 36.2 °F /  2.3 °C 29.98in /  1015.1hPa SSW 4.0mph /  6.4km/h 7.0mph /  11.3km/h 70% 0.21in /  5.3mm
13:25 45.7 °F /  7.6 °C 36.5 °F /  2.5 °C 29.97in /  1014.8hPa SE 3.0mph /  4.8km/h 7.0mph /  11.3km/h 70% 0.21in /  5.3mm
13:30 46.0 °F /  7.8 °C 37.8 °F /  3.2 °C 29.97in /  1014.8hPa SSW 4.0mph /  6.4km/h 10.0mph /  16.1km/h 73% 0.21in /  5.3mm
13:35 46.2 °F /  7.9 °C 36.6 °F /  2.6 °C 29.97in /  1014.8hPa SSW 5.0mph /  8km/h 18.0mph /  29km/h 69% 0.21in /  5.3mm
13:40 46.3 °F /  7.9 °C 36.3 °F /  2.4 °C 29.97in /  1014.8hPa SSW 6.0mph /  9.7km/h 18.0mph /  29km/h 68% 0.21in /  5.3mm
13:45 46.3 °F /  7.9 °C 35.6 °F /  2 °C 29.97in /  1014.8hPa SSE 5.0mph /  8km/h 22.0mph /  35.4km/h 66% 0.21in /  5.3mm
13:50 46.5 °F /  8.1 °C 36.1 °F /  2.3 °C 29.96in /  1014.4hPa South 3.0mph /  4.8km/h 22.0mph /  35.4km/h 67% 0.21in /  5.3mm
13:55 46.5 °F /  8.1 °C 36.1 °F /  2.3 °C 29.96in /  1014.4hPa SSE 5.0mph /  8km/h 15.0mph /  24.1km/h 67% 0.21in /  5.3mm
14:00 46.0 °F /  7.8 °C 36.4 °F /  2.4 °C 29.96in /  1014.4hPa SSE 6.0mph /  9.7km/h 11.0mph /  17.7km/h 69% 0.21in /  5.3mm
14:05 45.7 °F /  7.6 °C 36.1 °F /  2.3 °C 29.96in /  1014.4hPa South 3.0mph /  4.8km/h 11.0mph /  17.7km/h 69% 0.21in /  5.3mm
14:10 45.8 °F /  7.7 °C 35.8 °F /  2.1 °C 29.96in /  1014.4hPa SSW 3.0mph /  4.8km/h 13.0mph /  20.9km/h 68% 0.21in /  5.3mm
14:20 46.2 °F /  7.9 °C 37.3 °F /  2.9 °C 29.96in /  1014.4hPa South 2.0mph /  3.2km/h 5.0mph /  8km/h 71% 0.21in /  5.3mm
14:25 46.3 °F /  7.9 °C 36.7 °F /  2.6 °C 29.96in /  1014.4hPa SSW 4.0mph /  6.4km/h 7.0mph /  11.3km/h 69% 0.21in /  5.3mm
14:30 46.1 °F /  7.8 °C 36.9 °F /  2.7 °C 29.96in /  1014.4hPa SW 1.0mph /  1.6km/h 7.0mph /  11.3km/h 70% 0.21in /  5.3mm
14:35 46.1 °F /  7.8 °C 36.9 °F /  2.7 °C 29.96in /  1014.4hPa WSW 1.0mph /  1.6km/h 4.0mph /  6.4km/h 70% 0.21in /  5.3mm
14:40 46.0 °F /  7.8 °C 36.4 °F /  2.4 °C 29.96in /  1014.4hPa SSW 2.0mph /  3.2km/h 6.0mph /  9.7km/h 69% 0.21in /  5.3mm
14:45 45.9 °F /  7.7 °C 36.3 °F /  2.4 °C 29.96in /  1014.4hPa South 3.0mph /  4.8km/h 7.0mph /  11.3km/h 69% 0.21in /  5.3mm
14:50 45.6 °F /  7.6 °C 36.4 °F /  2.4 °C 29.96in /  1014.4hPa South 3.0mph /  4.8km/h 9.0mph /  14.5km/h 70% 0.21in /  5.3mm
14:55 45.5 °F /  7.5 °C 36.3 °F /  2.4 °C 29.95in /  1014.1hPa SSW 2.0mph /  3.2km/h 9.0mph /  14.5km/h 70% 0.21in /  5.3mm
15:00 45.3 °F /  7.4 °C 36.5 °F /  2.5 °C 29.95in /  1014.1hPa SSW 5.0mph /  8km/h 9.0mph /  14.5km/h 71% 0.21in /  5.3mm
15:05 45.0 °F /  7.2 °C 36.9 °F /  2.7 °C 29.95in /  1014.1hPa South 4.0mph /  6.4km/h 9.0mph /  14.5km/h 73% 0.21in /  5.3mm
15:10 44.7 °F /  7.1 °C 36.6 °F /  2.6 °C 29.94in /  1013.8hPa South 3.0mph /  4.8km/h 7.0mph /  11.3km/h 73% 0.21in /  5.3mm
15:15 44.6 °F /  7 °C 36.5 °F /  2.5 °C 29.94in /  1013.8hPa SSW 2.0mph /  3.2km/h 8.0mph /  12.9km/h 73% 0.21in /  5.3mm
15:20 44.7 °F /  7.1 °C 36.6 °F /  2.6 °C 29.94in /  1013.8hPa SSW 2.0mph /  3.2km/h 8.0mph /  12.9km/h 73% 0.21in /  5.3mm
15:25 44.7 °F /  7.1 °C 36.6 °F /  2.6 °C 29.94in /  1013.8hPa SSW 2.0mph /  3.2km/h 7.0mph /  11.3km/h 73% 0.21in /  5.3mm
15:30 44.9 °F /  7.2 °C 37.1 °F /  2.8 °C 29.93in /  1013.4hPa Calm   6.0mph /  9.7km/h 74% 0.21in /  5.3mm
15:35 45.0 °F /  7.2 °C 36.9 °F /  2.7 °C 29.92in /  1013.1hPa East 1.0mph /  1.6km/h 5.0mph /  8km/h 73% 0.21in /  5.3mm
15:40 45.0 °F /  7.2 °C 37.2 °F /  2.9 °C 29.92in /  1013.1hPa Calm   5.0mph /  8km/h 74% 0.22in /  5.6mm
15:45 44.7 °F /  7.1 °C 37.6 °F /  3.1 °C 29.92in /  1013.1hPa ESE 1.0mph /  1.6km/h 5.0mph /  8km/h 76% 0.22in /  5.6mm
15:50 44.1 °F /  6.7 °C 37.4 °F /  3 °C 29.92in /  1013.1hPa SSE 3.0mph /  4.8km/h 8.0mph /  12.9km/h 77% 0.22in /  5.6mm
15:55 43.8 °F /  6.6 °C 37.7 °F /  3.2 °C 29.91in /  1012.8hPa Calm   8.0mph /  12.9km/h 79% 0.22in /  5.6mm
16:00 43.6 °F /  6.4 °C 37.8 °F /  3.2 °C 29.91in /  1012.8hPa SSE 1.0mph /  1.6km/h 7.0mph /  11.3km/h 80% 0.22in /  5.6mm
16:05 43.5 °F /  6.4 °C 37.4 °F /  3 °C 29.91in /  1012.8hPa SE 2.0mph /  3.2km/h 7.0mph /  11.3km/h 79% 0.22in /  5.6mm
16:10 43.6 °F /  6.4 °C 37.5 °F /  3.1 °C 29.90in /  1012.4hPa Calm   7.0mph /  11.3km/h 79% 0.22in /  5.6mm
16:15 43.7 °F /  6.5 °C 37.6 °F /  3.1 °C 29.90in /  1012.4hPa Calm   7.0mph /  11.3km/h 79% 0.22in /  5.6mm
16:20 43.9 °F /  6.6 °C 37.5 °F /  3.1 °C 29.90in /  1012.4hPa Calm   7.0mph /  11.3km/h 78% 0.22in /  5.6mm
16:25 44.0 °F /  6.7 °C 37.3 °F /  2.9 °C 29.90in /  1012.4hPa Calm   5.0mph /  8km/h 77% 0.22in /  5.6mm
16:30 44.1 °F /  6.7 °C 37.7 °F /  3.2 °C 29.90in /  1012.4hPa SSE 3.0mph /  4.8km/h 8.0mph /  12.9km/h 78% 0.22in /  5.6mm
16:35 44.2 °F /  6.8 °C 38.1 °F /  3.4 °C 29.90in /  1012.4hPa SE 2.0mph /  3.2km/h 8.0mph /  12.9km/h 79% 0.22in /  5.6mm
16:45 43.7 °F /  6.5 °C 38.6 °F /  3.7 °C 29.89in /  1012.1hPa East 1.0mph /  1.6km/h 3.0mph /  4.8km/h 82% 0.22in /  5.6mm
16:50 43.5 °F /  6.4 °C 38.4 °F /  3.6 °C 29.89in /  1012.1hPa East 1.0mph /  1.6km/h 5.0mph /  8km/h 82% 0.22in /  5.6mm
16:55 43.3 °F /  6.3 °C 38.5 °F /  3.6 °C 29.89in /  1012.1hPa Calm   5.0mph /  8km/h 83% 0.22in /  5.6mm
17:00 43.3 °F /  6.3 °C 38.5 °F /  3.6 °C 29.89in /  1012.1hPa ENE 1.0mph /  1.6km/h 3.0mph /  4.8km/h 83% 0.22in /  5.6mm
17:05 43.1 °F /  6.2 °C 38.3 °F /  3.5 °C 29.88in /  1011.7hPa Calm   3.0mph /  4.8km/h 83% 0.22in /  5.6mm
17:10 43.2 °F /  6.2 °C 38.4 °F /  3.6 °C 29.88in /  1011.7hPa Calm     83% 0.22in /  5.6mm
17:15 43.2 °F /  6.2 °C 38.4 °F /  3.6 °C 29.88in /  1011.7hPa Calm   2.0mph /  3.2km/h 83% 0.22in /  5.6mm
17:20 43.2 °F /  6.2 °C 38.4 °F /  3.6 °C 29.88in /  1011.7hPa Calm   2.0mph /  3.2km/h 83% 0.22in /  5.6mm
17:25 43.3 °F /  6.3 °C 38.5 °F /  3.6 °C 29.88in /  1011.7hPa Calm   1.0mph /  1.6km/h 83% 0.22in /  5.6mm
17:30 43.2 °F /  6.2 °C 38.1 °F /  3.4 °C 29.89in /  1012.1hPa Calm   1.0mph /  1.6km/h 82% 0.22in /  5.6mm
17:35 43.2 °F /  6.2 °C 38.1 °F /  3.4 °C 29.89in /  1012.1hPa Calm     82% 0.22in /  5.6mm
17:40 43.2 °F /  6.2 °C 38.1 °F /  3.4 °C 29.88in /  1011.7hPa Calm     82% 0.22in /  5.6mm
17:45 43.3 °F /  6.3 °C 38.5 °F /  3.6 °C 29.88in /  1011.7hPa Calm     83% 0.22in /  5.6mm
17:50 43.3 °F /  6.3 °C 38.5 °F /  3.6 °C 29.88in /  1011.7hPa Calm     83% 0.22in /  5.6mm
17:55 43.3 °F /  6.3 °C 38.5 °F /  3.6 °C 29.88in /  1011.7hPa Calm   3.0mph /  4.8km/h 83% 0.22in /  5.6mm
18:00 43.4 °F /  6.3 °C 38.3 °F /  3.5 °C 29.88in /  1011.7hPa Calm   3.0mph /  4.8km/h 82% 0.22in /  5.6mm
18:05 43.6 °F /  6.4 °C 38.2 °F /  3.4 °C 29.88in /  1011.7hPa East 1.0mph /  1.6km/h 5.0mph /  8km/h 81% 0.22in /  5.6mm
18:10 43.7 °F /  6.5 °C 38.3 °F /  3.5 °C 29.88in /  1011.7hPa Calm   5.0mph /  8km/h 81% 0.22in /  5.6mm
18:15 43.7 °F /  6.5 °C 37.9 °F /  3.3 °C 29.88in /  1011.7hPa SSE 1.0mph /  1.6km/h 5.0mph /  8km/h 80% 0.22in /  5.6mm
18:20 43.8 °F /  6.6 °C 38.0 °F /  3.3 °C 29.88in /  1011.7hPa SSW 1.0mph /  1.6km/h 5.0mph /  8km/h 80% 0.22in /  5.6mm
18:25 43.8 °F /  6.6 °C 38.0 °F /  3.3 °C 29.88in /  1011.7hPa Calm   5.0mph /  8km/h 80% 0.22in /  5.6mm
18:30 43.7 °F /  6.5 °C 37.6 °F /  3.1 °C 29.88in /  1011.7hPa SSW 1.0mph /  1.6km/h 4.0mph /  6.4km/h 79% 0.22in /  5.6mm
18:35 43.7 °F /  6.5 °C 37.6 °F /  3.1 °C 29.88in /  1011.7hPa SSW 2.0mph /  3.2km/h 4.0mph /  6.4km/h 79% 0.22in /  5.6mm
18:40 43.7 °F /  6.5 °C 37.6 °F /  3.1 °C 29.88in /  1011.7hPa SSW 2.0mph /  3.2km/h 7.0mph /  11.3km/h 79% 0.22in /  5.6mm
18:45 43.6 °F /  6.4 °C 38.2 °F /  3.4 °C 29.88in /  1011.7hPa South 3.0mph /  4.8km/h 7.0mph /  11.3km/h 81% 0.22in /  5.6mm
18:50 43.2 °F /  6.2 °C 38.1 °F /  3.4 °C 29.88in /  1011.7hPa SSW 4.0mph /  6.4km/h 7.0mph /  11.3km/h 82% 0.23in /  5.8mm
18:55 42.9 °F /  6.1 °C 38.4 °F /  3.6 °C 29.88in /  1011.7hPa Calm   7.0mph /  11.3km/h 84% 0.24in /  6.1mm
19:00 42.6 °F /  5.9 °C 38.4 °F /  3.6 °C 29.88in /  1011.7hPa SSW 3.0mph /  4.8km/h 7.0mph /  11.3km/h 85% 0.25in /  6.4mm
19:05 42.2 °F /  5.7 °C 38.3 °F /  3.5 °C 29.88in /  1011.7hPa SSW 3.0mph /  4.8km/h 7.0mph /  11.3km/h 86% 0.26in /  6.6mm
19:15 42.0 °F /  5.6 °C 38.4 °F /  3.6 °C 29.87in /  1011.4hPa Calm   7.0mph /  11.3km/h 87% 0.28in /  7.1mm
19:20 41.9 °F /  5.5 °C 38.6 °F /  3.7 °C 29.87in /  1011.4hPa Calm   6.0mph /  9.7km/h 88% 0.28in /  7.1mm
19:25 41.8 °F /  5.4 °C 38.5 °F /  3.6 °C 29.87in /  1011.4hPa SSW 1.0mph /  1.6km/h 3.0mph /  4.8km/h 88% 0.29in /  7.4mm
19:30 41.8 °F /  5.4 °C 38.8 °F /  3.8 °C 29.87in /  1011.4hPa Calm   3.0mph /  4.8km/h 89% 0.29in /  7.4mm
19:35 41.7 °F /  5.4 °C 38.7 °F /  3.7 °C 29.87in /  1011.4hPa Calm   2.0mph /  3.2km/h 89% 0.29in /  7.4mm
19:40 41.7 °F /  5.4 °C 38.7 °F /  3.7 °C 29.87in /  1011.4hPa SSW 2.0mph /  3.2km/h 3.0mph /  4.8km/h 89% 0.29in /  7.4mm
19:45 41.7 °F /  5.4 °C 38.7 °F /  3.7 °C 29.87in /  1011.4hPa Calm   3.0mph /  4.8km/h 89% 0.30in /  7.6mm
19:50 41.6 °F /  5.3 °C 38.9 °F /  3.8 °C 29.87in /  1011.4hPa Calm   3.0mph /  4.8km/h 90% 0.30in /  7.6mm
19:55 41.6 °F /  5.3 °C 38.9 °F /  3.8 °C 29.87in /  1011.4hPa SSW 2.0mph /  3.2km/h 4.0mph /  6.4km/h 90% 0.30in /  7.6mm
20:00 41.6 °F /  5.3 °C 38.9 °F /  3.8 °C 29.87in /  1011.4hPa SSW 1.0mph /  1.6km/h 4.0mph /  6.4km/h 90% 0.30in /  7.6mm
20:05 41.6 °F /  5.3 °C 38.9 °F /  3.8 °C 29.87in /  1011.4hPa SSW 2.0mph /  3.2km/h 4.0mph /  6.4km/h 90% 0.30in /  7.6mm
20:15 41.5 °F /  5.3 °C 38.8 °F /  3.8 °C 29.87in /  1011.4hPa SSW 2.0mph /  3.2km/h 4.0mph /  6.4km/h 90% 0.30in /  7.6mm
20:20 41.5 °F /  5.3 °C 38.8 °F /  3.8 °C 29.87in /  1011.4hPa Calm   4.0mph /  6.4km/h 90% 0.30in /  7.6mm
20:25 41.5 °F /  5.3 °C 39.1 °F /  3.9 °C 29.86in /  1011.1hPa Calm   3.0mph /  4.8km/h 91% 0.30in /  7.6mm
20:30 41.5 °F /  5.3 °C 39.1 °F /  3.9 °C 29.86in /  1011.1hPa SSW 2.0mph /  3.2km/h 4.0mph /  6.4km/h 91% 0.30in /  7.6mm
20:35 41.5 °F /  5.3 °C 39.1 °F /  3.9 °C 29.86in /  1011.1hPa SSW 2.0mph /  3.2km/h 5.0mph /  8km/h 91% 0.30in /  7.6mm
20:40 41.5 °F /  5.3 °C 39.1 °F /  3.9 °C 29.86in /  1011.1hPa Calm   5.0mph /  8km/h 91% 0.30in /  7.6mm
20:45 41.4 °F /  5.2 °C 39.0 °F /  3.9 °C 29.86in /  1011.1hPa Calm   5.0mph /  8km/h 91% 0.31in /  7.9mm
20:50 41.5 °F /  5.3 °C 39.1 °F /  3.9 °C 29.86in /  1011.1hPa Calm   5.0mph /  8km/h 91% 0.31in /  7.9mm
20:55 41.4 °F /  5.2 °C 39.0 °F /  3.9 °C 29.86in /  1011.1hPa SSW 2.0mph /  3.2km/h 4.0mph /  6.4km/h 91% 0.31in /  7.9mm
21:00 41.4 °F /  5.2 °C 39.0 °F /  3.9 °C 29.86in /  1011.1hPa SSW 1.0mph /  1.6km/h 4.0mph /  6.4km/h 91% 0.31in /  7.9mm
21:05 41.4 °F /  5.2 °C 39.0 °F /  3.9 °C 29.86in /  1011.1hPa SSW 1.0mph /  1.6km/h 5.0mph /  8km/h 91% 0.31in /  7.9mm
21:10 41.4 °F /  5.2 °C 39.0 °F /  3.9 °C 29.85in /  1010.7hPa South 2.0mph /  3.2km/h 5.0mph /  8km/h 91% 0.31in /  7.9mm
21:20 41.4 °F /  5.2 °C 39.0 °F /  3.9 °C 29.85in /  1010.7hPa SSE 2.0mph /  3.2km/h 6.0mph /  9.7km/h 91% 0.31in /  7.9mm
21:25 41.4 °F /  5.2 °C 39.0 °F /  3.9 °C 29.85in /  1010.7hPa South 2.0mph /  3.2km/h 7.0mph /  11.3km/h 91% 0.31in /  7.9mm
21:30 41.4 °F /  5.2 °C 39.0 °F /  3.9 °C 29.85in /  1010.7hPa South 2.0mph /  3.2km/h 7.0mph /  11.3km/h 91% 0.31in /  7.9mm
21:35 41.3 °F /  5.2 °C 39.2 °F /  4 °C 29.85in /  1010.7hPa South 2.0mph /  3.2km/h 5.0mph /  8km/h 92% 0.31in /  7.9mm
21:40 41.3 °F /  5.2 °C 39.2 °F /  4 °C 29.85in /  1010.7hPa Calm   4.0mph /  6.4km/h 92% 0.31in /  7.9mm
21:45 41.2 °F /  5.1 °C 38.8 °F /  3.8 °C 29.85in /  1010.7hPa Calm   4.0mph /  6.4km/h 91% 0.31in /  7.9mm
21:50 41.2 °F /  5.1 °C 39.1 °F /  3.9 °C 29.85in /  1010.7hPa South 2.0mph /  3.2km/h 4.0mph /  6.4km/h 92% 0.31in /  7.9mm
21:55 41.2 °F /  5.1 °C 39.1 °F /  3.9 °C 29.85in /  1010.7hPa Calm   4.0mph /  6.4km/h 92% 0.31in /  7.9mm
22:00 41.2 °F /  5.1 °C 39.1 °F /  3.9 °C 29.85in /  1010.7hPa Calm   1.0mph /  1.6km/h 92% 0.31in /  7.9mm
22:05 41.1 °F /  5.1 °C 39.0 °F /  3.9 °C 29.85in /  1010.7hPa South 1.0mph /  1.6km/h 2.0mph /  3.2km/h 92% 0.31in /  7.9mm
22:10 41.1 °F /  5.1 °C 39.0 °F /  3.9 °C 29.84in /  1010.4hPa Calm   2.0mph /  3.2km/h 92% 0.31in /  7.9mm
22:15 41.1 °F /  5.1 °C 39.0 °F /  3.9 °C 29.84in /  1010.4hPa Calm     92% 0.31in /  7.9mm
22:20 41.1 °F /  5.1 °C 39.0 °F /  3.9 °C 29.84in /  1010.4hPa Calm     92% 0.31in /  7.9mm
22:25 41.1 °F /  5.1 °C 39.0 °F /  3.9 °C 29.84in /  1010.4hPa Calm     92% 0.31in /  7.9mm
22:30 41.1 °F /  5.1 °C 39.0 °F /  3.9 °C 29.84in /  1010.4hPa Calm   2.0mph /  3.2km/h 92% 0.31in /  7.9mm
22:35 41.1 °F /  5.1 °C 39.0 °F /  3.9 °C 29.84in /  1010.4hPa South 1.0mph /  1.6km/h 2.0mph /  3.2km/h 92% 0.31in /  7.9mm
22:40 41.1 °F /  5.1 °C 39.0 °F /  3.9 °C 29.83in /  1010hPa Calm   2.0mph /  3.2km/h 92% 0.31in /  7.9mm
22:45 41.1 °F /  5.1 °C 39.0 °F /  3.9 °C 29.83in /  1010hPa Calm     92% 0.31in /  7.9mm
22:50 41.0 °F /  5 °C 38.9 °F /  3.8 °C 29.83in /  1010hPa Calm   2.0mph /  3.2km/h 92% 0.31in /  7.9mm
22:55 41.0 °F /  5 °C 38.9 °F /  3.8 °C 29.83in /  1010hPa Calm   2.0mph /  3.2km/h 92% 0.31in /  7.9mm
23:00 40.9 °F /  4.9 °C 38.8 °F /  3.8 °C 29.83in /  1010hPa Calm   2.0mph /  3.2km/h 92% 0.31in /  7.9mm
23:05 40.9 °F /  4.9 °C 38.8 °F /  3.8 °C 29.83in /  1010hPa Calm     92% 0.31in /  7.9mm
23:10 40.9 °F /  4.9 °C 38.8 °F /  3.8 °C 29.83in /  1010hPa Calm     92% 0.31in /  7.9mm
23:15 40.8 °F /  4.9 °C 38.7 °F /  3.7 °C 29.83in /  1010hPa Calm   2.0mph /  3.2km/h 92% 0.31in /  7.9mm
23:20 40.8 °F /  4.9 °C 38.7 °F /  3.7 °C 29.83in /  1010hPa South 1.0mph /  1.6km/h 2.0mph /  3.2km/h 92% 0.31in /  7.9mm
23:25 40.8 °F /  4.9 °C 38.7 °F /  3.7 °C 29.83in /  1010hPa Calm   2.0mph /  3.2km/h 92% 0.31in /  7.9mm
23:30 40.8 °F /  4.9 °C 38.7 °F /  3.7 °C 29.83in /  1010hPa Calm     92% 0.31in /  7.9mm
23:35 40.8 °F /  4.9 °C 38.9 °F /  3.8 °C 29.83in /  1010hPa Calm     93% 0.31in /  7.9mm
23:45 40.8 °F /  4.9 °C 38.9 °F /  3.8 °C 29.83in /  1010hPa Calm   1.0mph /  1.6km/h 93% 0.31in /  7.9mm
23:50 40.9 °F /  4.9 °C 39.0 °F /  3.9 °C 29.83in /  1010hPa South 1.0mph /  1.6km/h 2.0mph /  3.2km/h 93% 0.31in /  7.9mm
23:55 40.9 °F /  4.9 °C 39.0 °F /  3.9 °C 29.83in /  1010hPa Calm   3.0mph /  4.8km/h 93% 0.31in /  7.9mm
Westford Weather
Compliments of Weather Underground

 
 
Current Radar Loop:

Copyright © WestfordWeather.net 2007-2014. All rights reserved.